createdAt,value
2019-02-21T00:01:33.424Z,-18.64
2019-02-21T00:04:19.419Z,-18.68
2019-02-21T00:06:45.672Z,-18.77
2019-02-21T00:09:11.913Z,-18.80
2019-02-21T00:11:38.169Z,-18.79
2019-02-21T00:14:04.528Z,-19.05
2019-02-21T00:16:30.795Z,-19.03
2019-02-21T00:18:57.073Z,-19.05
2019-02-21T00:21:23.314Z,-19.08
2019-02-21T00:23:49.556Z,-19.08
2019-02-21T00:26:15.818Z,-19.06
2019-02-21T00:28:42.056Z,-19.05
2019-02-21T00:31:08.285Z,-19.04
2019-02-21T00:33:34.542Z,-19.01
2019-02-21T00:36:00.793Z,-18.97
2019-02-21T00:38:27.038Z,-19.03
2019-02-21T00:40:53.276Z,-19.15
2019-02-21T00:43:19.505Z,-19.19
2019-02-21T00:45:45.749Z,-19.22
2019-02-21T00:48:11.983Z,-19.25
2019-02-21T00:50:38.233Z,-19.36
2019-02-21T00:53:04.458Z,-19.48
2019-02-21T00:55:30.724Z,-19.52
2019-02-21T00:58:38.263Z,-19.56
2019-02-21T01:01:04.502Z,-19.65
2019-02-21T01:03:30.735Z,-19.74
2019-02-21T01:05:56.995Z,-19.74
2019-02-21T01:08:23.223Z,-19.76
2019-02-21T01:10:49.466Z,-19.79
2019-02-21T01:13:15.692Z,-19.86
2019-02-21T01:15:41.938Z,-19.91
2019-02-21T01:18:08.170Z,-19.95
2019-02-21T01:20:34.408Z,-20.01
2019-02-21T01:23:00.640Z,-19.90
2019-02-21T01:25:26.876Z,-19.90
2019-02-21T01:27:53.096Z,-19.89
2019-02-21T01:30:19.335Z,-19.89
2019-02-21T01:32:45.559Z,-19.94
2019-02-21T01:35:11.816Z,-19.95
2019-02-21T01:37:38.140Z,-20.01
2019-02-21T01:40:45.687Z,-20.07
2019-02-21T01:43:11.919Z,-20.08
2019-02-21T01:45:38.159Z,-20.08
2019-02-21T01:48:04.397Z,-20.14
2019-02-21T01:50:31.585Z,-20.14
2019-02-21T01:52:58.785Z,-20.09
2019-02-21T01:55:25.032Z,-20.10
2019-02-21T01:57:51.266Z,-20.22
2019-02-21T02:00:17.509Z,-20.30
2019-02-21T02:02:43.757Z,-20.32
2019-02-21T02:05:09.991Z,-20.34
2019-02-21T02:08:17.545Z,-20.27
2019-02-21T02:10:43.788Z,-20.31
2019-02-21T02:13:21.656Z,-20.52
2019-02-21T02:15:38.163Z,-20.55
2019-02-21T02:18:04.404Z,-20.53
2019-02-21T02:20:30.647Z,-20.55
2019-02-21T02:22:56.892Z,-20.64
2019-02-21T02:25:23.121Z,-20.76
2019-02-21T02:27:49.372Z,-20.91
2019-02-21T02:30:15.625Z,-21.05
2019-02-21T02:32:41.890Z,-21.08
2019-02-21T02:35:08.087Z,-21.09
2019-02-21T02:37:34.387Z,-21.25
2019-02-21T02:40:00.654Z,-21.16
2019-02-21T02:42:26.900Z,-21.18
2019-02-21T02:44:53.146Z,-21.21
2019-02-21T02:47:19.396Z,-22.03
2019-02-21T02:49:45.634Z,-21.20
2019-02-21T02:52:11.875Z,-21.18
2019-02-21T02:54:38.110Z,-21.22
2019-02-21T02:57:04.359Z,-21.30
2019-02-21T02:59:40.248Z,-21.34
2019-02-21T03:01:58.744Z,-21.32
2019-02-21T03:04:25.022Z,-21.34
2019-02-21T03:06:51.250Z,-21.38
2019-02-21T03:09:17.499Z,-21.34
2019-02-21T03:11:43.722Z,-21.25
2019-02-21T03:14:09.969Z,-21.22
2019-02-21T03:16:36.206Z,-21.25
2019-02-21T03:19:02.478Z,-21.31
2019-02-21T03:21:28.704Z,-21.34
2019-02-21T03:23:54.978Z,-21.30
2019-02-21T03:26:21.173Z,-21.29
2019-02-21T03:28:47.435Z,-21.36
2019-02-21T03:31:13.659Z,-21.19
2019-02-21T03:33:39.902Z,-21.08
2019-02-21T03:36:06.114Z,-21.20
2019-02-21T03:38:34.984Z,-21.37
2019-02-21T03:41:12.705Z,-21.45
2019-02-21T03:43:38.956Z,-21.45
2019-02-21T03:46:05.195Z,-21.50
2019-02-21T03:48:31.447Z,-21.51
2019-02-21T03:50:57.672Z,-21.47
2019-02-21T03:53:23.926Z,-21.50
2019-02-21T03:59:03.817Z,-21.75
2019-02-21T04:01:30.050Z,-21.88
2019-02-21T04:04:37.603Z,-21.83
2019-02-21T04:07:03.938Z,-21.83
2019-02-21T04:09:30.187Z,-21.94
2019-02-21T04:11:56.423Z,-22.04
2019-02-21T04:19:30.899Z,-21.82
2019-02-21T04:21:57.127Z,-21.92
2019-02-21T04:24:23.365Z,-22.11
2019-02-21T04:26:49.612Z,-22.15
2019-02-21T04:29:15.842Z,-22.20
2019-02-21T04:31:42.071Z,-22.31
2019-02-21T04:34:08.333Z,-22.39
2019-02-21T04:36:34.558Z,-22.40
2019-02-21T04:39:00.801Z,-22.38
2019-02-21T04:41:27.033Z,-22.36
2019-02-21T04:43:53.299Z,-22.35
2019-02-21T04:46:19.535Z,-22.37
2019-02-21T04:48:45.758Z,-22.27
2019-02-21T04:51:11.997Z,-22.20
2019-02-21T04:53:38.225Z,-22.21
2019-02-21T04:56:04.468Z,-22.12
2019-02-21T04:58:30.713Z,-22.15
2019-02-21T05:00:56.959Z,-22.21
2019-02-21T05:03:23.190Z,-22.21
2019-02-21T05:05:49.422Z,-22.27
2019-02-21T05:08:15.657Z,-22.25
2019-02-21T05:10:42.016Z,-22.35
2019-02-21T05:13:08.243Z,-22.41
2019-02-21T05:15:34.464Z,-22.43
2019-02-21T05:18:00.711Z,-22.49
2019-02-21T05:20:26.939Z,-22.52
2019-02-21T05:22:53.178Z,-22.54
2019-02-21T05:25:19.398Z,-22.62
2019-02-21T05:33:13.247Z,-22.65
2019-02-21T05:35:59.242Z,-22.71
2019-02-21T05:38:45.223Z,-22.76
2019-02-21T05:44:08.839Z,-22.70
2019-02-21T05:46:54.845Z,-22.75
2019-02-21T05:55:06.041Z,-22.82
2019-02-21T05:57:52.023Z,-22.84
2019-02-21T06:00:38.005Z,-22.85
2019-02-21T06:03:24.007Z,-22.83
2019-02-21T06:06:10.102Z,-22.84
2019-02-21T06:08:56.104Z,-22.87
2019-02-21T06:19:41.239Z,-22.95
2019-02-21T06:22:27.240Z,-22.92
2019-02-21T06:25:13.322Z,-22.86
2019-02-21T06:30:46.934Z,-22.84
2019-02-21T06:33:13.158Z,-22.85
2019-02-21T06:35:39.405Z,-22.96
2019-02-21T06:38:05.634Z,-23.05
2019-02-21T06:40:31.880Z,-23.04
2019-02-21T06:42:58.123Z,-23.00
2019-02-21T06:45:24.397Z,-23.00
2019-02-21T06:47:50.625Z,-23.02
2019-02-21T06:50:26.381Z,-23.00
2019-02-21T06:52:45.006Z,-22.94
2019-02-21T06:55:11.262Z,-22.95
2019-02-21T06:57:37.539Z,-22.96
2019-02-21T07:00:46.305Z,-22.96
2019-02-21T07:03:16.096Z,-22.97
2019-02-21T07:05:41.389Z,-22.97
2019-02-21T07:08:08.827Z,-22.99
2019-02-21T07:10:35.766Z,-23.01
2019-02-21T07:13:02.011Z,-22.99
2019-02-21T07:15:28.238Z,-22.95
2019-02-21T07:17:54.471Z,-22.87
2019-02-21T07:20:20.696Z,-22.77
2019-02-21T07:22:46.932Z,-22.70
2019-02-21T07:25:32.912Z,-22.64
2019-02-21T07:27:59.160Z,-22.59
2019-02-21T07:30:25.397Z,-22.51
2019-02-21T07:32:51.636Z,-22.43
2019-02-21T07:35:17.873Z,-22.38
2019-02-21T07:37:44.137Z,-22.35
2019-02-21T07:40:30.123Z,-22.28
2019-02-21T07:42:58.629Z,-22.23
2019-02-21T07:45:24.492Z,-22.17
2019-02-21T07:47:50.742Z,-22.10
2019-02-21T07:50:16.970Z,-22.04
2019-02-21T07:52:43.213Z,-21.92
2019-02-21T07:55:10.581Z,-21.82
2019-02-21T07:57:37.593Z,-21.70
2019-02-21T08:03:29.558Z,-21.45
2019-02-21T08:05:46.028Z,-21.29
2019-02-21T08:08:12.275Z,-21.16
2019-02-21T08:10:38.496Z,-21.03
2019-02-21T08:13:04.738Z,-20.88
2019-02-21T08:15:30.972Z,-20.67
2019-02-21T08:17:57.222Z,-20.50
2019-02-21T08:20:33.557Z,-20.35
2019-02-21T08:22:51.603Z,-20.18
2019-02-21T08:25:19.252Z,-20.04
2019-02-21T08:27:45.960Z,-19.89
2019-02-21T08:30:53.508Z,-19.75
2019-02-21T08:33:39.504Z,-20.37
2019-02-21T08:36:05.735Z,-19.36
2019-02-21T08:38:31.988Z,-19.21
2019-02-21T08:40:58.212Z,-19.06
2019-02-21T08:43:24.476Z,-18.87
2019-02-21T08:45:50.697Z,-18.66
2019-02-21T08:48:16.942Z,-18.50
2019-02-21T08:50:43.186Z,-18.33
2019-02-21T08:53:09.455Z,-18.19
2019-02-21T08:55:35.647Z,-18.04
2019-02-21T08:58:01.880Z,-17.87
2019-02-21T09:00:28.225Z,-17.64
2019-02-21T09:02:54.550Z,-17.45
2019-02-21T09:06:02.093Z,-17.29
2019-02-21T09:08:33.717Z,-17.20
2019-02-21T09:10:56.478Z,-16.96
2019-02-21T09:13:23.863Z,-16.77
2019-02-21T09:15:50.852Z,-16.62
2019-02-21T09:18:17.071Z,-16.43
2019-02-21T09:20:43.324Z,-16.24
2019-02-21T09:23:09.551Z,-16.06
2019-02-21T09:25:35.792Z,-15.89
2019-02-21T09:28:02.021Z,-15.84
2019-02-21T09:30:28.267Z,-15.80
2019-02-21T09:32:54.492Z,-15.68
2019-02-21T09:35:20.738Z,-15.56
2019-02-21T09:37:46.962Z,-15.44
2019-02-21T09:40:54.496Z,-15.27
2019-02-21T09:43:20.732Z,-15.07
2019-02-21T09:45:46.987Z,-14.79
2019-02-21T09:48:13.227Z,-14.57
2019-02-21T09:50:39.468Z,-14.37
2019-02-21T09:53:05.697Z,-14.21
2019-02-21T09:55:31.937Z,-13.92
2019-02-21T09:57:58.174Z,-13.67
2019-02-21T10:00:24.411Z,-13.50
2019-02-21T10:02:54.301Z,-13.33
2019-02-21T10:05:18.781Z,-13.06
2019-02-21T10:07:45.118Z,-12.80
2019-02-21T10:10:52.661Z,-12.62
2019-02-21T10:13:18.889Z,-12.49
2019-02-21T10:15:46.997Z,-12.30
2019-02-21T10:18:13.288Z,-12.12
2019-02-21T10:20:39.536Z,-11.87
2019-02-21T10:23:05.770Z,-11.65
2019-02-21T10:25:32.001Z,-11.46
2019-02-21T10:27:59.226Z,-11.34
2019-02-21T10:30:26.356Z,-11.21
2019-02-21T10:32:52.597Z,-11.03
2019-02-21T10:35:18.842Z,-10.95
2019-02-21T10:37:45.066Z,-10.85
2019-02-21T10:40:52.632Z,-10.72
2019-02-21T10:43:18.859Z,-10.60
2019-02-21T10:45:47.716Z,-10.39
2019-02-21T10:48:13.258Z,-10.15
2019-02-21T10:50:39.477Z,-9.96
2019-02-21T10:53:05.711Z,-9.75
2019-02-21T10:55:31.940Z,-9.52
2019-02-21T10:57:58.275Z,-9.34
2019-02-21T11:03:38.271Z,-8.96
2019-02-21T11:06:04.507Z,-8.64
2019-02-21T11:08:30.767Z,-8.43
2019-02-21T11:10:57.004Z,-8.34
2019-02-21T11:13:23.244Z,-8.18
2019-02-21T11:15:49.474Z,-7.99
2019-02-21T11:18:15.716Z,-7.77
2019-02-21T11:20:41.940Z,-7.56
2019-02-21T11:23:08.191Z,-7.53
2019-02-21T11:25:34.420Z,-7.37
2019-02-21T11:28:00.670Z,-7.27
2019-02-21T11:30:26.904Z,-7.14
2019-02-21T11:32:53.158Z,-6.97
2019-02-21T11:35:19.377Z,-6.85
2019-02-21T11:37:47.083Z,-6.57
2019-02-21T11:43:27.293Z,-6.41
2019-02-21T11:45:57.203Z,-6.41
2019-02-21T11:48:21.668Z,-6.47
2019-02-21T11:50:47.896Z,-6.58
2019-02-21T11:53:14.135Z,-6.64
2019-02-21T11:55:40.372Z,-6.74
2019-02-21T11:58:06.619Z,-6.85
2019-02-21T12:00:33.052Z,-6.98
2019-02-21T12:02:59.291Z,-7.07
2019-02-21T12:05:31.323Z,-7.06
2019-02-21T12:07:53.672Z,-7.10
2019-02-21T12:10:19.915Z,-7.03
2019-02-21T12:12:46.148Z,-7.15
2019-02-21T12:15:53.692Z,-7.11
2019-02-21T12:18:20.040Z,-6.92
2019-02-21T12:20:46.274Z,-6.93
2019-02-21T12:23:12.522Z,-7.05
2019-02-21T12:25:38.753Z,-7.11
2019-02-21T12:28:04.982Z,-7.04
2019-02-21T12:30:33.346Z,-6.92
2019-02-21T12:32:59.366Z,-6.88
2019-02-21T12:35:29.548Z,-7.02
2019-02-21T12:37:53.767Z,-7.13
2019-02-21T12:41:02.354Z,-7.18
2019-02-21T12:43:29.450Z,-7.15
2019-02-21T12:46:37.017Z,-7.15
2019-02-21T12:49:03.266Z,-7.28
2019-02-21T12:51:29.504Z,-7.62
2019-02-21T12:53:55.747Z,-7.76
2019-02-21T12:56:21.988Z,-7.72
2019-02-21T12:58:48.253Z,-7.88
2019-02-21T13:01:14.507Z,-8.02
2019-02-21T13:03:40.755Z,-8.08
2019-02-21T13:06:07.003Z,-8.10
2019-02-21T13:08:33.243Z,-8.16
2019-02-21T13:10:59.507Z,-8.23
2019-02-21T13:13:25.743Z,-8.25
2019-02-21T13:15:52.002Z,-8.30
2019-02-21T13:18:18.237Z,-8.33
2019-02-21T13:20:44.484Z,-8.43
2019-02-21T13:23:10.726Z,-8.49
2019-02-21T13:25:36.977Z,-8.55
2019-02-21T13:28:03.212Z,-8.64
2019-02-21T13:30:29.477Z,-8.68
2019-02-21T13:32:55.702Z,-8.73
2019-02-21T13:35:21.953Z,-8.84
2019-02-21T13:37:48.190Z,-8.95
2019-02-21T13:40:55.742Z,-8.97
2019-02-21T13:43:21.980Z,-9.06
2019-02-21T13:45:48.231Z,-9.10
2019-02-21T13:48:14.469Z,-9.19
2019-02-21T13:50:40.702Z,-9.25
2019-02-21T13:53:06.946Z,-9.38
2019-02-21T13:55:33.193Z,-9.47
2019-02-21T13:57:59.428Z,-9.50
2019-02-21T14:00:25.661Z,-9.56
2019-02-21T14:02:51.915Z,-9.65
2019-02-21T14:05:18.140Z,-9.71
2019-02-21T14:07:44.383Z,-9.77
2019-02-21T14:13:11.952Z,-9.89
2019-02-21T14:15:39.547Z,-9.96
2019-02-21T14:18:05.810Z,-10.10
2019-02-21T14:20:32.045Z,-10.15
2019-02-21T14:22:58.284Z,-10.19
2019-02-21T14:25:24.511Z,-10.24
2019-02-21T14:27:50.751Z,-10.33
2019-02-21T14:33:07.117Z,-10.51
2019-02-21T14:35:33.557Z,-10.62
2019-02-21T14:37:59.881Z,-10.72
2019-02-21T14:40:26.204Z,-10.79
2019-02-21T14:42:52.487Z,-10.88
2019-02-21T14:45:38.493Z,-10.99
2019-02-21T14:48:04.824Z,-11.12
2019-02-21T14:50:31.062Z,-11.24
2019-02-21T14:52:57.315Z,-11.36
2019-02-21T14:55:23.564Z,-11.45
2019-02-21T14:57:49.817Z,-11.51
2019-02-21T15:00:36.564Z,-11.60
2019-02-21T15:03:02.812Z,-11.70
2019-02-21T15:05:29.219Z,-11.78
2019-02-21T15:07:55.529Z,-11.88
2019-02-21T15:10:21.801Z,-12.00
2019-02-21T15:12:48.034Z,-12.16
2019-02-21T15:18:27.965Z,-12.46
2019-02-21T15:20:54.203Z,-12.51
2019-02-21T15:23:20.467Z,-12.53
2019-02-21T15:25:46.698Z,-12.58
2019-02-21T15:28:12.946Z,-12.67
2019-02-21T15:30:39.181Z,-12.78
2019-02-21T15:33:05.419Z,-12.90
2019-02-21T15:35:31.663Z,-13.02
2019-02-21T15:38:00.435Z,-13.30
2019-02-21T15:40:26.113Z,-13.46
2019-02-21T15:42:52.936Z,-13.59
2019-02-21T15:45:40.243Z,-13.74
2019-02-21T15:48:06.569Z,-13.85
2019-02-21T15:50:32.903Z,-14.08
2019-02-21T15:52:59.131Z,-14.25
2019-02-21T15:55:25.369Z,-14.40
2019-02-21T15:58:02.699Z,-14.51
2019-02-21T16:00:39.506Z,-14.63
2019-02-21T16:03:05.743Z,-14.71
2019-02-21T16:05:31.990Z,-14.84
2019-02-21T16:07:58.222Z,-14.93
2019-02-21T16:11:05.921Z,-15.02
2019-02-21T16:13:32.955Z,-15.21
2019-02-21T16:16:00.286Z,-15.42
2019-02-21T16:18:26.526Z,-15.55
2019-02-21T16:20:53.098Z,-15.72
2019-02-21T16:23:20.911Z,-15.82
2019-02-21T16:25:47.151Z,-15.88
2019-02-21T16:28:13.375Z,-15.94
2019-02-21T16:30:39.639Z,-15.96
2019-02-21T16:33:05.899Z,-15.99
2019-02-21T16:35:32.290Z,-16.06
2019-02-21T16:37:58.508Z,-16.18
2019-02-21T16:40:24.756Z,-16.34
2019-02-21T16:42:50.989Z,-16.48
2019-02-21T16:45:43.494Z,-16.56
2019-02-21T16:48:05.139Z,-16.62
2019-02-21T16:50:31.368Z,-16.87
2019-02-21T16:52:57.607Z,-17.12
2019-02-21T16:55:23.851Z,-17.24
2019-02-21T16:57:50.088Z,-17.28
2019-02-21T17:00:47.793Z,-17.29
2019-02-21T17:03:04.243Z,-17.34
2019-02-21T17:05:30.469Z,-17.43
2019-02-21T17:07:56.698Z,-17.50
2019-02-21T17:10:22.952Z,-17.59
2019-02-21T17:12:49.186Z,-17.63
2019-02-21T17:15:56.733Z,-17.69
2019-02-21T17:18:22.974Z,-17.78
2019-02-21T17:20:49.216Z,-17.93
2019-02-21T17:23:22.513Z,-18.03
2019-02-21T17:25:43.587Z,-18.08
2019-02-21T17:28:09.831Z,-18.14
2019-02-21T17:30:36.110Z,-18.21
2019-02-21T17:33:02.338Z,-18.80
2019-02-21T17:35:28.685Z,-18.34
2019-02-21T17:37:54.905Z,-18.43
2019-02-21T17:40:40.898Z,-18.57
2019-02-21T17:43:07.149Z,-18.68
2019-02-21T17:45:33.382Z,-18.80
2019-02-21T17:47:59.620Z,-18.84
2019-02-21T17:50:25.855Z,-18.95
2019-02-21T17:52:52.105Z,-19.04
2019-02-21T17:55:18.321Z,-19.11
2019-02-21T17:57:44.552Z,-19.18
2019-02-21T18:00:52.087Z,-19.22
2019-02-21T18:03:18.373Z,-19.35
2019-02-21T18:05:44.606Z,-19.57
2019-02-21T18:08:10.836Z,-19.69
2019-02-21T18:10:37.073Z,-19.80
2019-02-21T18:13:03.350Z,-19.90
2019-02-21T18:15:29.615Z,-19.96
2019-02-21T18:17:55.852Z,-20.01
2019-02-21T18:20:22.092Z,-20.13
2019-02-21T18:22:48.328Z,-20.61
2019-02-21T18:28:28.506Z,-20.27
2019-02-21T18:30:54.740Z,-20.31
2019-02-21T18:33:20.988Z,-20.30
2019-02-21T18:35:47.207Z,-20.35
2019-02-21T18:38:13.457Z,-20.47
2019-02-21T18:40:39.998Z,-20.55
2019-02-21T18:43:06.307Z,-20.61
2019-02-21T18:45:32.551Z,-20.61
2019-02-21T18:47:58.802Z,-20.65
2019-02-21T18:50:25.047Z,-20.70
2019-02-21T18:52:51.284Z,-20.76
2019-02-21T18:55:17.529Z,-20.87
2019-02-21T18:57:43.763Z,-20.97
2019-02-21T19:00:29.756Z,-21.05
2019-02-21T19:02:56.010Z,-21.07
2019-02-21T19:05:22.264Z,-21.10
2019-02-21T19:08:00.498Z,-21.17
2019-02-21T19:13:30.845Z,-21.20
2019-02-21T19:15:57.082Z,-21.21
2019-02-21T19:18:24.273Z,-21.27
2019-02-21T19:20:51.477Z,-21.41
2019-02-21T19:23:17.763Z,-21.48
2019-02-21T19:25:43.994Z,-21.52
2019-02-21T19:28:10.221Z,-21.53
2019-02-21T19:31:15.957Z,-21.54
2019-02-21T19:33:42.215Z,-21.56
2019-02-21T19:39:15.804Z,-21.57
2019-02-21T19:41:42.031Z,-21.66
2019-02-21T19:44:09.265Z,-21.77
2019-02-21T19:46:36.430Z,-21.85
2019-02-21T19:49:02.665Z,-21.95
2019-02-21T19:51:28.896Z,-22.00
2019-02-21T19:53:55.166Z,-22.04
2019-02-21T19:56:21.379Z,-22.03
2019-02-21T19:58:47.630Z,-22.08
2019-02-21T20:01:13.964Z,-22.13
2019-02-21T20:03:40.190Z,-22.18
2019-02-21T20:06:47.736Z,-22.21
2019-02-21T20:11:48.140Z,-22.26
2019-02-21T20:14:14.370Z,-22.34
2019-02-21T20:16:40.612Z,-22.41
2019-02-21T20:19:06.874Z,-22.49
2019-02-21T20:21:33.120Z,-22.48
2019-02-21T20:23:59.348Z,-22.48
2019-02-21T20:26:25.587Z,-22.52
2019-02-21T20:28:51.834Z,-22.61
2019-02-21T20:31:18.100Z,-22.69
2019-02-21T20:33:44.322Z,-22.84
2019-02-21T20:36:10.663Z,-22.87
2019-02-21T20:38:36.904Z,-22.89
2019-02-21T20:41:03.132Z,-22.93
2019-02-21T20:43:29.360Z,-22.95
2019-02-21T20:45:55.608Z,-23.07
2019-02-21T20:48:21.834Z,-23.11
2019-02-21T20:50:56.488Z,-23.15
2019-02-21T20:53:16.227Z,-23.17
2019-02-21T20:55:43.920Z,-23.18
2019-02-21T20:58:11.678Z,-23.19
2019-02-21T21:00:38.751Z,-23.24
2019-02-21T21:03:04.977Z,-23.28
2019-02-21T21:05:31.216Z,-23.30
2019-02-21T21:07:57.460Z,-23.38
2019-02-21T21:10:23.667Z,-23.46
2019-02-21T21:12:49.919Z,-23.56
2019-02-21T21:15:16.153Z,-23.65
2019-02-21T21:17:42.395Z,-23.69
2019-02-21T21:23:22.777Z,-23.66
2019-02-21T21:25:49.019Z,-23.60
2019-02-21T21:28:15.353Z,-23.66
2019-02-21T21:30:41.580Z,-23.68
2019-02-21T21:33:07.831Z,-23.71
2019-02-21T21:35:34.067Z,-23.76
2019-02-21T21:38:00.305Z,-23.76
2019-02-21T21:40:26.536Z,-23.81
2019-02-21T21:42:52.770Z,-23.84
2019-02-21T21:45:19.010Z,-23.84
2019-02-21T21:47:45.239Z,-23.78
2019-02-21T21:53:25.029Z,-23.93
2019-02-21T21:55:51.253Z,-24.04
2019-02-21T21:58:17.491Z,-24.06
2019-02-21T22:00:43.736Z,-24.06
2019-02-21T22:03:09.979Z,-24.08
2019-02-21T22:05:36.208Z,-24.10
2019-02-21T22:08:02.447Z,-24.13
2019-02-21T22:10:28.672Z,-24.12
2019-02-21T22:12:54.935Z,-24.08
2019-02-21T22:18:34.582Z,-24.13
2019-02-21T22:21:00.813Z,-24.22
2019-02-21T22:23:27.064Z,-24.22
2019-02-21T22:25:53.298Z,-24.34
2019-02-21T22:28:19.543Z,-24.39
2019-02-21T22:30:45.760Z,-24.43
2019-02-21T22:33:12.001Z,-24.45
2019-02-21T22:35:38.228Z,-24.44
2019-02-21T22:38:11.240Z,-24.45
2019-02-21T22:40:37.474Z,-24.41
2019-02-21T22:43:03.737Z,-24.39
2019-02-21T22:45:29.963Z,-24.38
2019-02-21T22:47:56.208Z,-24.40
2019-02-21T22:50:22.431Z,-24.53
2019-02-21T22:52:48.674Z,-24.64
2019-02-21T22:55:14.904Z,-24.70
2019-02-21T22:57:41.127Z,-24.72
2019-02-21T23:00:48.672Z,-24.77
2019-02-21T23:03:17.481Z,-24.80
2019-02-21T23:06:22.574Z,-24.86
2019-02-21T23:09:28.450Z,-24.87
2019-02-21T23:11:54.667Z,-24.83
2019-02-21T23:14:20.920Z,-24.80
2019-02-21T23:16:47.148Z,-24.79
2019-02-21T23:19:13.388Z,-24.76
2019-02-21T23:21:39.608Z,-24.75
2019-02-21T23:24:05.856Z,-24.80
2019-02-21T23:26:32.075Z,-24.88
2019-02-21T23:28:58.308Z,-24.92
2019-02-21T23:31:24.552Z,-24.91
2019-02-21T23:34:10.571Z,-24.86
2019-02-21T23:36:36.809Z,-24.87
2019-02-21T23:41:57.436Z,-24.95
2019-02-21T23:44:23.658Z,-24.93
2019-02-21T23:46:49.906Z,-24.91
2019-02-21T23:49:16.139Z,-24.92
2019-02-21T23:51:42.384Z,-24.94
2019-02-21T23:54:08.612Z,-24.99
2019-02-21T23:56:34.861Z,-25.03
2019-02-21T23:59:01.085Z,-25.06
